Time;durP1;ratioP1;P1;durP2;ratioP2;P2;SDS_P1;SDS_P2;PMS_P1;PMS_P2;Temp;Humidity;BMP_temperature;BMP_pressure;BME280_temperature;BME280_humidity;BME280_pressure;Samples;Min_cycle;Max_cycle;Signal;HPM_P1;HPM_P2
2024/01/22 00:02:07;;;;;;;11.77;4.17;;;3.10;87.10;;;;;;5064190;28;20541;-66
2024/01/22 00:04:35;;;;;;;11.00;4.63;;;3.10;87.20;;;;;;5064521;28;20482;-68
2024/01/22 00:07:02;;;;;;;10.60;3.77;;;3.00;87.40;;;;;;5062459;28;20475;-67
2024/01/22 00:09:30;;;;;;;11.53;4.20;;;3.00;87.90;;;;;;5064736;28;20447;-67
2024/01/22 00:12:00;;;;;;;12.53;4.03;;;2.90;89.30;;;;;;5064158;28;20582;-67
2024/01/22 00:14:28;;;;;;;11.40;4.00;;;2.80;89.60;;;;;;5062332;28;20843;-67
2024/01/22 00:16:56;;;;;;;10.00;3.20;;;2.60;89.60;;;;;;5062475;28;20528;-67
2024/01/22 00:19:22;;;;;;;10.00;3.37;;;2.60;88.70;;;;;;5061155;28;21178;-69
2024/01/22 00:21:50;;;;;;;10.57;3.30;;;2.70;86.20;;;;;;5066768;28;21037;-69
2024/01/22 00:24:18;;;;;;;8.83;2.70;;;2.70;87.80;;;;;;5067393;28;20492;-69
2024/01/22 00:26:46;;;;;;;8.30;2.60;;;2.90;85.90;;;;;;5067569;28;20459;-68
2024/01/22 00:29:16;;;;;;;10.87;4.10;;;2.90;85.90;;;;;;5063588;28;21106;-70
2024/01/22 00:31:44;;;;;;;11.33;3.67;;;2.80;86.40;;;;;;5066812;28;20844;-68
2024/01/22 00:34:12;;;;;;;10.10;3.63;;;2.80;87.10;;;;;;5068911;28;20478;-67
2024/01/22 00:36:40;;;;;;;9.17;3.20;;;2.70;87.30;;;;;;5068945;28;20462;-68
2024/01/22 00:39:08;;;;;;;8.70;3.43;;;2.70;86.60;;;;;;5069873;28;20454;-68
2024/01/22 00:41:36;;;;;;;9.23;4.03;;;2.70;86.90;;;;;;5068730;28;20449;-68
2024/01/22 00:44:05;;;;;;;11.60;4.33;;;2.80;86.50;;;;;;5068304;28;20852;-69
2024/01/22 00:46:34;;;;;;;10.63;4.27;;;2.70;86.80;;;;;;5062419;28;20545;-68
2024/01/22 00:49:03;;;;;;;10.03;3.60;;;2.70;87.30;;;;;;5068897;28;20471;-68
2024/01/22 00:51:33;;;;;;;11.00;3.67;;;2.70;86.60;;;;;;5067773;28;20494;-68
2024/01/22 00:54:01;;;;;;;10.27;3.60;;;2.80;87.20;;;;;;5068704;28;20555;-68
2024/01/22 00:56:29;;;;;;;13.10;4.43;;;2.80;87.70;;;;;;5068463;28;20567;-67
2024/01/22 00:58:57;;;;;;;13.30;5.10;;;2.70;87.60;;;;;;5068701;28;20443;-67
2024/01/22 01:01:25;;;;;;;12.30;5.13;;;2.70;87.90;;;;;;5068103;28;20234;-67
2024/01/22 01:03:56;;;;;;;12.90;4.20;;;2.60;87.80;;;;;;5065932;28;20899;-67
2024/01/22 01:06:24;;;;;;;14.00;4.87;;;2.60;88.00;;;;;;5068505;28;20470;-68
2024/01/22 01:08:52;;;;;;;16.60;4.85;;;2.60;88.00;;;;;;5068492;28;20495;-67
2024/01/22 01:11:20;;;;;;;12.43;5.17;;;2.60;87.90;;;;;;5067792;28;20592;-68
2024/01/22 01:13:48;;;;;;;12.70;4.70;;;2.50;88.50;;;;;;5068336;28;20974;-68
2024/01/22 01:16:16;;;;;;;11.43;5.15;;;2.40;89.30;;;;;;5068193;28;20898;-68
2024/01/22 01:18:44;;;;;;;11.52;5.40;;;2.50;88.90;;;;;;5065947;28;20220;-68
2024/01/22 01:21:14;;;;;;;11.40;4.57;;;2.50;88.50;;;;;;5063349;28;20225;-69
2024/01/22 01:23:42;;;;;;;11.95;5.28;;;2.60;89.10;;;;;;5069247;28;20207;-66
2024/01/22 01:26:10;;;;;;;12.95;5.53;;;2.50;89.30;;;;;;5069164;28;20227;-67
2024/01/22 01:28:38;;;;;;;13.43;5.90;;;2.50;89.60;;;;;;5068913;28;20637;-67
2024/01/22 01:31:06;;;;;;;12.57;4.90;;;2.40;90.40;;;;;;5068454;28;20461;-68
2024/01/22 01:33:35;;;;;;;12.23;5.10;;;2.20;90.90;;;;;;5068782;28;20214;-66
2024/01/22 01:36:04;;;;;;;15.32;5.72;;;2.10;91.00;;;;;;5068612;28;20719;-68
2024/01/22 01:38:33;;;;;;;11.10;4.15;;;1.90;91.50;;;;;;5068697;28;20261;-67
2024/01/22 01:41:01;;;;;;;12.95;5.25;;;1.90;91.50;;;;;;5068469;28;20263;-67
2024/01/22 01:43:29;;;;;;;11.93;4.88;;;1.90;91.80;;;;;;5068929;28;20254;-67
2024/01/22 01:45:57;;;;;;;11.75;5.10;;;2.00;91.70;;;;;;5069057;28;20284;-68
2024/01/22 01:48:26;;;;;;;11.50;5.35;;;2.00;91.50;;;;;;5068541;28;20231;-68
2024/01/22 01:50:56;;;;;;;12.57;5.47;;;2.00;91.90;;;;;;5068513;28;20206;-67
2024/01/22 01:53:25;;;;;;;13.75;5.95;;;2.00;92.00;;;;;;5068907;28;20214;-67
2024/01/22 01:55:55;;;;;;;15.10;5.63;;;2.00;92.10;;;;;;5069253;28;20758;-68
2024/01/22 01:58:24;;;;;;;13.00;5.10;;;2.00;92.20;;;;;;5069761;28;20234;-67
2024/01/22 02:00:55;;;;;;;14.45;5.75;;;2.00;92.20;;;;;;5067918;28;20226;-67
2024/01/22 02:03:23;;;;;;;12.75;5.78;;;1.90;92.30;;;;;;5069031;28;20237;-68
2024/01/22 02:05:51;;;;;;;12.98;5.32;;;1.90;92.30;;;;;;5068770;28;20659;-68
2024/01/22 02:08:19;;;;;;;12.73;5.85;;;1.90;92.60;;;;;;5068536;28;20275;-69
2024/01/22 02:10:48;;;;;;;12.30;5.18;;;1.90;92.50;;;;;;5068134;28;20218;-69
2024/01/22 02:13:17;;;;;;;13.30;5.93;;;1.90;92.70;;;;;;5068530;28;20314;-69
2024/01/22 02:15:45;;;;;;;12.45;5.68;;;2.00;93.00;;;;;;5061010;28;20612;-68
2024/01/22 02:18:13;;;;;;;14.65;6.82;;;2.00;92.90;;;;;;5068742;28;20204;-68
2024/01/22 02:20:41;;;;;;;14.00;5.83;;;1.90;93.00;;;;;;5067361;28;20309;-68
2024/01/22 02:23:10;;;;;;;13.57;5.43;;;1.90;93.60;;;;;;5067985;28;20470;-68
2024/01/22 02:25:38;;;;;;;12.82;5.68;;;2.00;93.50;;;;;;5062931;28;20223;-69
2024/01/22 02:28:06;;;;;;;11.97;5.57;;;2.00;93.20;;;;;;5067964;28;20349;-69
2024/01/22 02:30:34;;;;;;;12.37;6.60;;;1.90;93.70;;;;;;5067591;28;20492;-69
2024/01/22 02:33:02;;;;;;;15.27;7.20;;;1.90;93.60;;;;;;5067673;28;20943;-68
2024/01/22 02:35:30;;;;;;;12.45;6.45;;;1.90;93.80;;;;;;5067508;28;20461;-68
2024/01/22 02:37:58;;;;;;;12.10;6.40;;;1.90;94.00;;;;;;5067944;28;20233;-68
2024/01/22 02:40:28;;;;;;;13.97;6.23;;;1.90;94.20;;;;;;5066458;28;21028;-69
2024/01/22 02:42:56;;;;;;;12.52;6.03;;;1.80;94.60;;;;;;5066915;28;20502;-67
2024/01/22 02:45:23;;;;;;;15.05;6.72;;;1.60;94.90;;;;;;5071999;28;20226;-67
2024/01/22 02:47:51;;;;;;;12.68;6.40;;;1.50;95.40;;;;;;5067393;28;20220;-68
2024/01/22 02:50:20;;;;;;;18.13;7.00;;;1.40;96.40;;;;;;5066756;28;20724;-67
2024/01/22 02:52:48;;;;;;;18.48;8.10;;;1.30;96.60;;;;;;5067161;28;20227;-67
2024/01/22 02:55:17;;;;;;;16.50;7.57;;;1.30;96.70;;;;;;5067389;28;20234;-68
2024/01/22 02:57:49;;;;;;;15.27;7.80;;;1.30;96.70;;;;;;5067685;28;20223;-67
2024/01/22 03:00:17;;;;;;;14.63;7.82;;;1.20;97.30;;;;;;5067013;28;20584;-69
2024/01/22 03:02:46;;;;;;;16.15;8.20;;;1.20;97.00;;;;;;5067031;28;20225;-67
2024/01/22 03:05:14;;;;;;;16.02;9.00;;;1.10;97.70;;;;;;5067425;28;20206;-67
2024/01/22 03:07:42;;;;;;;19.02;8.80;;;1.10;97.60;;;;;;5067244;28;20228;-67
2024/01/22 03:10:10;;;;;;;15.52;7.97;;;1.00;98.10;;;;;;5066598;28;20279;-68
2024/01/22 03:12:38;;;;;;;14.13;8.25;;;1.00;98.40;;;;;;5067041;28;20243;-67
2024/01/22 03:15:09;;;;;;;19.00;9.32;;;0.90;98.60;;;;;;5066903;28;20226;-67
2024/01/22 03:17:37;;;;;;;17.75;9.02;;;0.90;98.70;;;;;;5067050;28;20635;-68
2024/01/22 03:20:06;;;;;;;15.80;8.07;;;0.80;98.80;;;;;;5066695;28;20215;-67
2024/01/22 03:22:34;;;;;;;17.15;7.80;;;0.90;99.20;;;;;;5066877;28;20227;-68
2024/01/22 03:25:02;;;;;;;17.42;8.02;;;0.80;99.30;;;;;;5064718;28;20724;-67
2024/01/22 03:27:30;;;;;;;16.20;7.70;;;0.90;99.10;;;;;;5064522;28;20702;-67
2024/01/22 03:29:58;;;;;;;15.02;7.00;;;1.00;99.40;;;;;;5067064;28;20314;-68
2024/01/22 03:32:29;;;;;;;16.58;7.72;;;1.10;99.20;;;;;;5066420;28;20226;-68
2024/01/22 03:34:57;;;;;;;15.23;8.23;;;1.20;99.10;;;;;;5066906;28;20242;-68
2024/01/22 03:37:25;;;;;;;14.90;7.90;;;1.30;99.10;;;;;;5066681;28;20765;-68
2024/01/22 03:39:53;;;;;;;17.73;8.60;;;1.30;99.40;;;;;;5066905;28;20237;-68
2024/01/22 03:42:21;;;;;;;14.70;7.05;;;1.30;99.30;;;;;;5062593;28;20230;-67
2024/01/22 03:44:49;;;;;;;15.65;7.63;;;1.40;98.80;;;;;;5067403;28;20202;-68
2024/01/22 03:47:17;;;;;;;15.45;7.30;;;1.50;98.60;;;;;;5066829;28;20229;-67
2024/01/22 03:49:46;;;;;;;12.60;6.10;;;1.50;98.40;;;;;;5058492;28;20697;-68
2024/01/22 03:52:14;;;;;;;15.82;7.47;;;1.60;98.40;;;;;;5066442;28;20465;-70
2024/01/22 03:54:42;;;;;;;13.67;6.60;;;1.60;98.80;;;;;;5066836;28;20252;-67
2024/01/22 03:57:10;;;;;;;14.43;6.80;;;1.60;98.00;;;;;;5065574;28;20473;-67
2024/01/22 03:59:38;;;;;;;17.48;6.88;;;1.70;98.00;;;;;;5070070;28;20276;-67
2024/01/22 04:02:06;;;;;;;14.55;6.82;;;1.80;98.00;;;;;;5069995;28;20307;-68
2024/01/22 04:04:34;;;;;;;14.70;6.80;;;1.80;97.90;;;;;;5070280;28;20204;-67
2024/01/22 04:07:04;;;;;;;12.97;6.23;;;1.80;98.10;;;;;;5070583;28;20891;-68
2024/01/22 04:09:32;;;;;;;13.60;5.70;;;1.80;98.60;;;;;;5070191;28;20453;-68
2024/01/22 04:12:00;;;;;;;14.67;6.00;;;1.90;98.70;;;;;;5069683;28;20457;-70
2024/01/22 04:14:28;;;;;;;14.60;6.13;;;1.90;98.80;;;;;;5070041;28;20975;-68
2024/01/22 04:16:56;;;;;;;14.23;6.87;;;1.90;99.00;;;;;;5070091;28;20542;-67
2024/01/22 04:19:24;;;;;;;11.50;4.60;;;1.90;99.40;;;;;;5070015;28;20552;-68
2024/01/22 04:21:52;;;;;;;11.00;4.60;;;2.00;99.20;;;;;;5069926;28;20488;-68
2024/01/22 04:24:21;;;;;;;9.70;4.60;;;2.10;99.00;;;;;;5070106;28;21274;-68
2024/01/22 04:26:49;;;;;;;10.30;3.97;;;2.10;98.70;;;;;;5069771;28;20956;-67
2024/01/22 04:29:17;;;;;;;9.60;3.73;;;2.30;98.60;;;;;;5070584;28;20451;-67
2024/01/22 04:31:45;;;;;;;10.80;5.00;;;2.50;97.80;;;;;;5069443;28;20550;-67
2024/01/22 04:34:13;;;;;;;10.03;3.93;;;2.70;97.40;;;;;;5070105;28;20451;-67
2024/01/22 04:36:41;;;;;;;12.57;4.30;;;2.70;96.90;;;;;;5068980;28;20478;-67
2024/01/22 04:39:09;;;;;;;9.83;3.73;;;2.70;97.40;;;;;;5069723;28;20467;-68
2024/01/22 04:41:38;;;;;;;10.60;4.17;;;2.70;97.60;;;;;;5069076;28;21012;-68
2024/01/22 04:44:06;;;;;;;9.00;3.60;;;2.90;97.60;;;;;;5069480;28;20983;-69
2024/01/22 04:46:34;;;;;;;10.60;4.30;;;2.90;97.60;;;;;;5069714;28;21163;-68
2024/01/22 04:49:02;;;;;;;12.27;4.67;;;2.80;97.50;;;;;;5069710;28;20976;-68
2024/01/22 04:51:30;;;;;;;10.90;3.80;;;2.80;98.00;;;;;;5068641;28;20973;-66
2024/01/22 04:53:58;;;;;;;12.70;4.53;;;2.70;98.00;;;;;;5069310;28;20469;-69
2024/01/22 04:56:26;;;;;;;10.07;4.50;;;2.70;98.70;;;;;;5069347;28;20914;-68
2024/01/22 04:58:55;;;;;;;12.90;4.60;;;2.70;98.30;;;;;;5069559;28;20447;-68
2024/01/22 05:01:23;;;;;;;11.97;3.70;;;2.80;98.40;;;;;;5068851;28;20815;-68
2024/01/22 05:03:51;;;;;;;9.60;3.60;;;2.80;98.70;;;;;;5069396;28;20480;-67
2024/01/22 05:06:19;;;;;;;12.40;3.60;;;2.80;99.10;;;;;;5064058;28;20923;-67
2024/01/22 05:08:47;;;;;;;10.43;3.87;;;2.80;99.40;;;;;;5061444;28;20873;-67
2024/01/22 05:11:15;;;;;;;10.67;4.73;;;2.80;98.80;;;;;;5068829;28;20469;-67
2024/01/22 05:13:49;;;;;;;10.93;4.33;;;2.90;98.30;;;;;;5068917;28;20474;-68
2024/01/22 05:16:19;;;;;;;11.60;4.37;;;3.00;97.90;;;;;;5069071;28;20466;-68
2024/01/22 05:18:48;;;;;;;12.00;4.27;;;3.00;98.00;;;;;;5060909;28;21802;-68
2024/01/22 05:21:17;;;;;;;10.40;4.50;;;3.00;98.20;;;;;;5069009;28;20976;-68
2024/01/22 05:23:45;;;;;;;10.10;4.30;;;3.00;98.20;;;;;;5067472;28;20494;-67
2024/01/22 05:26:13;;;;;;;12.63;4.67;;;3.10;98.10;;;;;;5068938;28;20477;-67
2024/01/22 05:28:41;;;;;;;11.67;4.40;;;3.10;98.10;;;;;;5069028;28;20474;-69
2024/01/22 05:31:09;;;;;;;12.57;4.10;;;3.10;97.90;;;;;;5068841;28;20570;-68
2024/01/22 05:33:38;;;;;;;11.27;4.30;;;3.00;98.70;;;;;;5069418;28;20443;-67
2024/01/22 05:36:08;;;;;;;12.50;4.87;;;3.00;99.40;;;;;;5069475;28;21060;-65
2024/01/22 05:38:40;;;;;;;12.30;6.00;;;2.90;99.30;;;;;;5067147;28;20515;-67
2024/01/22 05:41:08;;;;;;;11.03;4.90;;;3.00;99.00;;;;;;5067069;28;20520;-67
2024/01/22 05:43:36;;;;;;;11.73;4.73;;;3.00;99.20;;;;;;5067989;28;20475;-67
2024/01/22 05:46:04;;;;;;;12.53;5.10;;;3.00;98.70;;;;;;5068619;28;20494;-68
2024/01/22 05:48:33;;;;;;;12.10;4.37;;;3.00;99.40;;;;;;5068253;28;21118;-68
2024/01/22 05:51:03;;;;;;;11.90;5.30;;;3.00;99.50;;;;;;5068007;28;20983;-69
2024/01/22 05:53:31;;;;;;;12.40;5.33;;;2.90;99.60;;;;;;5065727;28;21050;-68
2024/01/22 05:55:59;;;;;;;10.17;4.20;;;3.10;99.00;;;;;;5064890;28;20915;-67
2024/01/22 05:58:27;;;;;;;11.73;5.03;;;3.20;98.80;;;;;;5068231;28;20450;-67
2024/01/22 06:00:55;;;;;;;12.00;4.63;;;3.10;99.30;;;;;;5068129;28;20548;-67
2024/01/22 06:03:23;;;;;;;9.87;3.97;;;3.10;99.60;;;;;;5068291;28;20540;-66
2024/01/22 06:05:52;;;;;;;11.87;3.93;;;3.00;99.90;;;;;;5067168;28;20474;-68
2024/01/22 06:08:21;;;;;;;12.77;4.37;;;3.20;99.70;;;;;;5068879;28;20555;-69
2024/01/22 06:10:50;;;;;;;10.30;3.97;;;3.20;99.40;;;;;;5059578;28;20459;-67
2024/01/22 06:13:19;;;;;;;13.47;4.00;;;3.20;99.40;;;;;;5067950;28;20874;-67
2024/01/22 06:15:46;;;;;;;12.07;3.70;;;3.30;98.90;;;;;;5067958;28;20439;-68
2024/01/22 06:18:14;;;;;;;9.67;4.20;;;3.40;98.60;;;;;;5067141;28;20870;-69
2024/01/22 06:20:42;;;;;;;11.77;3.53;;;3.50;98.70;;;;;;5067158;28;21010;-68
2024/01/22 06:23:10;;;;;;;11.40;4.47;;;3.50;98.50;;;;;;5065448;28;21250;-67
2024/01/22 06:25:40;;;;;;;14.10;4.50;;;3.50;98.70;;;;;;5061742;28;20443;-68
2024/01/22 06:28:08;;;;;;;11.20;4.67;;;3.50;98.70;;;;;;5070335;28;20498;-67
2024/01/22 06:30:36;;;;;;;11.63;4.20;;;3.60;98.30;;;;;;5066286;28;20439;-67
2024/01/22 06:33:05;;;;;;;10.67;4.10;;;3.70;98.20;;;;;;5067033;28;20542;-67
2024/01/22 06:35:33;;;;;;;11.13;4.00;;;3.70;98.20;;;;;;5067027;28;20447;-68
2024/01/22 06:38:01;;;;;;;10.10;4.50;;;3.80;98.10;;;;;;5066432;28;20474;-68
2024/01/22 06:40:30;;;;;;;11.77;4.57;;;3.80;98.30;;;;;;5067178;28;20457;-66
2024/01/22 06:42:59;;;;;;;13.10;4.80;;;3.70;98.30;;;;;;5067510;28;20475;-67
2024/01/22 06:45:27;;;;;;;9.90;3.60;;;3.80;98.30;;;;;;5067382;28;20449;-66
2024/01/22 06:47:55;;;;;;;10.00;3.90;;;4.00;97.70;;;;;;5067734;28;20482;-68
2024/01/22 06:50:23;;;;;;;10.83;4.00;;;4.10;97.50;;;;;;5067354;28;20457;-66
2024/01/22 06:52:51;;;;;;;10.80;4.33;;;4.10;97.70;;;;;;5067583;28;20449;-68
2024/01/22 06:55:19;;;;;;;12.00;4.00;;;4.10;97.50;;;;;;5065579;28;20491;-67
2024/01/22 06:57:47;;;;;;;10.50;4.00;;;4.10;98.20;;;;;;5065001;28;20463;-67
2024/01/22 07:00:19;;;;;;;16.20;4.23;;;4.10;97.60;;;;;;5065471;28;20455;-67
2024/01/22 07:02:48;;;;;;;10.60;3.97;;;4.20;97.80;;;;;;5065937;28;20559;-66
2024/01/22 07:05:18;;;;;;;13.33;5.90;;;4.20;97.90;;;;;;5065959;28;20450;-66
2024/01/22 07:07:46;;;;;;;12.80;4.60;;;4.20;97.70;;;;;;5065079;28;20546;-66
2024/01/22 07:10:14;;;;;;;10.33;4.10;;;4.20;97.70;;;;;;5065411;28;20454;-67
2024/01/22 07:12:42;;;;;;;11.17;3.87;;;4.20;97.40;;;;;;5067156;28;20504;-67
2024/01/22 07:15:12;;;;;;;13.07;3.80;;;4.20;98.40;;;;;;5067731;28;20486;-67
2024/01/22 07:17:44;;;;;;;12.00;4.40;;;4.20;97.30;;;;;;5067376;28;20467;-66
2024/01/22 07:20:14;;;;;;;10.07;3.80;;;4.20;97.50;;;;;;5066947;28;20454;-67
2024/01/22 07:22:44;;;;;;;10.60;3.20;;;4.30;97.00;;;;;;5067015;28;20447;-66
2024/01/22 07:25:16;;;;;;;12.17;4.60;;;4.30;97.30;;;;;;5067583;28;20451;-66
2024/01/22 07:27:44;;;;;;;10.20;3.50;;;4.40;97.10;;;;;;5067133;28;20470;-68
2024/01/22 07:30:14;;;;;;;9.83;3.30;;;4.50;96.70;;;;;;5069440;28;20949;-67
2024/01/22 07:32:44;;;;;;;11.63;4.07;;;4.40;97.10;;;;;;5070757;28;20454;-67
2024/01/22 07:35:13;;;;;;;14.03;3.80;;;4.40;97.30;;;;;;5071116;28;20452;-67
2024/01/22 07:37:44;;;;;;;10.80;4.27;;;4.40;97.70;;;;;;5070827;28;20470;-66
2024/01/22 07:40:14;;;;;;;10.80;3.80;;;4.40;98.10;;;;;;5070748;28;20445;-67
2024/01/22 07:42:42;;;;;;;12.20;4.50;;;4.40;97.70;;;;;;5070979;28;20520;-67
2024/01/22 07:45:11;;;;;;;9.77;3.50;;;4.40;98.10;;;;;;5070651;28;20464;-67
2024/01/22 07:47:40;;;;;;;9.67;3.17;;;4.50;97.70;;;;;;5070562;28;20475;-67
2024/01/22 07:50:12;;;;;;;10.60;3.73;;;4.60;98.20;;;;;;5070681;28;20560;-68
2024/01/22 07:52:41;;;;;;;11.30;3.80;;;4.70;96.80;;;;;;5070570;28;20461;-68
2024/01/22 07:55:13;;;;;;;9.80;3.10;;;4.90;96.20;;;;;;5070837;28;20512;-67
2024/01/22 07:57:41;;;;;;;7.90;2.30;;;5.10;95.60;;;;;;5070735;28;20470;-68
2024/01/22 08:00:11;;;;;;;10.43;3.37;;;5.20;95.70;;;;;;5070355;28;20530;-67
2024/01/22 08:02:40;;;;;;;8.63;2.63;;;5.30;95.60;;;;;;5070849;28;20444;-68
2024/01/22 08:05:13;;;;;;;9.17;3.10;;;5.40;95.60;;;;;;5070659;28;20479;-68
2024/01/22 08:07:43;;;;;;;8.60;2.80;;;5.50;95.10;;;;;;5070600;28;20469;-69
2024/01/22 08:10:12;;;;;;;8.07;2.50;;;5.60;95.00;;;;;;5070089;28;20813;-69
2024/01/22 08:12:40;;;;;;;9.13;2.90;;;5.70;94.30;;;;;;5069912;28;20456;-68
2024/01/22 08:15:14;;;;;;;9.20;3.27;;;5.80;94.20;;;;;;5070709;28;20458;-68
2024/01/22 08:17:43;;;;;;;12.00;2.83;;;5.80;94.50;;;;;;5070382;28;20473;-68
2024/01/22 08:20:13;;;;;;;8.50;2.50;;;5.90;94.20;;;;;;5069880;28;20527;-66
2024/01/22 08:22:43;;;;;;;8.27;2.50;;;5.90;94.50;;;;;;5070453;28;20454;-67
2024/01/22 08:25:17;;;;;;;10.10;2.63;;;6.10;94.10;;;;;;5070178;28;20517;-69
2024/01/22 08:27:46;;;;;;;8.43;2.50;;;6.20;93.90;;;;;;5069898;28;20474;-68
2024/01/22 08:30:14;;;;;;;9.77;3.00;;;6.30;93.70;;;;;;5069672;28;20452;-68
2024/01/22 08:32:42;;;;;;;9.50;2.47;;;6.50;93.50;;;;;;5069943;28;20443;-68
2024/01/22 08:35:10;;;;;;;8.77;2.70;;;6.60;93.60;;;;;;5070211;28;20480;-68
2024/01/22 08:37:40;;;;;;;8.07;2.10;;;6.60;93.60;;;;;;5070062;28;20482;-67
2024/01/22 08:40:09;;;;;;;8.87;2.17;;;6.70;93.40;;;;;;5069706;28;21305;-68
2024/01/22 08:42:37;;;;;;;8.03;2.10;;;6.80;93.30;;;;;;5069378;28;20453;-67
2024/01/22 08:45:06;;;;;;;7.70;2.00;;;6.90;93.30;;;;;;5070169;28;20492;-67
2024/01/22 08:47:34;;;;;;;8.53;2.57;;;6.90;93.80;;;;;;5070003;28;20504;-67
2024/01/22 08:50:04;;;;;;;8.63;2.13;;;6.90;93.90;;;;;;5069829;28;20498;-67
2024/01/22 08:52:32;;;;;;;9.53;2.37;;;7.10;93.70;;;;;;5069714;28;20945;-67
2024/01/22 08:55:02;;;;;;;7.80;1.90;;;7.20;93.70;;;;;;5069982;28;20458;-67
2024/01/22 08:57:31;;;;;;;9.97;2.50;;;7.30;93.90;;;;;;5069867;28;20459;-67
2024/01/22 09:00:00;;;;;;;7.47;1.93;;;7.40;93.60;;;;;;5069711;28;20451;-68
2024/01/22 09:02:28;;;;;;;8.37;2.30;;;7.50;93.70;;;;;;5069679;28;20454;-67
2024/01/22 09:04:55;;;;;;;8.93;2.47;;;7.50;93.90;;;;;;5061188;28;20482;-69
2024/01/22 09:07:23;;;;;;;8.10;2.53;;;7.60;93.90;;;;;;5069519;28;20479;-67
2024/01/22 09:09:51;;;;;;;7.40;1.70;;;7.70;93.80;;;;;;5069347;28;20440;-68
2024/01/22 09:12:21;;;;;;;12.73;2.73;;;7.80;94.20;;;;;;5069071;28;20453;-67
2024/01/22 09:14:49;;;;;;;9.40;2.70;;;7.90;94.20;;;;;;5069475;28;20543;-67
2024/01/22 09:17:17;;;;;;;8.67;2.27;;;8.00;94.10;;;;;;5069177;28;20471;-66
2024/01/22 09:19:44;;;;;;;10.23;2.40;;;8.10;94.10;;;;;;5069259;28;20546;-69
2024/01/22 09:22:12;;;;;;;8.20;2.30;;;8.20;93.80;;;;;;5069142;28;20467;-67
2024/01/22 09:24:40;;;;;;;8.63;2.10;;;8.20;93.90;;;;;;5069060;28;20988;-68
2024/01/22 09:27:08;;;;;;;12.40;2.23;;;8.40;94.20;;;;;;5069038;28;20467;-67
2024/01/22 09:29:38;;;;;;;9.63;3.30;;;8.40;94.30;;;;;;5068881;28;20448;-68
2024/01/22 09:32:06;;;;;;;11.97;2.20;;;8.50;94.50;;;;;;5068527;28;20451;-68
2024/01/22 09:34:34;;;;;;;7.63;2.20;;;8.70;95.40;;;;;;5068984;28;20444;-68
2024/01/22 09:37:03;;;;;;;8.10;2.40;;;8.70;95.90;;;;;;5068932;28;20484;-67
2024/01/22 09:39:31;;;;;;;9.70;1.80;;;8.90;96.40;;;;;;5068618;28;20479;-67
2024/01/22 09:41:59;;;;;;;7.03;1.20;;;9.10;98.00;;;;;;5068409;28;20460;-66
2024/01/22 09:44:28;;;;;;;7.33;0.97;;;9.40;99.60;;;;;;5068921;28;20512;-66
2024/01/22 09:46:57;;;;;;;10.17;1.07;;;9.80;99.90;;;;;;5060288;28;20470;-68
2024/01/22 09:49:25;;;;;;;8.33;0.60;;;10.30;99.90;;;;;;5068787;28;20445;-67
2024/01/22 09:51:54;;;;;;;6.40;0.50;;;10.80;99.90;;;;;;5068070;28;20446;-67
2024/01/22 09:54:22;;;;;;;6.00;0.60;;;11.10;99.90;;;;;;5067794;28;20442;-67
2024/01/22 09:56:51;;;;;;;5.83;0.50;;;11.40;99.70;;;;;;5068363;28;20549;-66
2024/01/22 09:59:21;;;;;;;6.93;0.73;;;11.60;99.40;;;;;;5068347;28;20455;-66
2024/01/22 10:01:51;;;;;;;5.90;0.60;;;11.70;99.50;;;;;;5068045;28;20489;-67
2024/01/22 10:04:23;;;;;;;6.83;1.43;;;11.80;99.30;;;;;;5068207;28;20480;-68
2024/01/22 10:06:51;;;;;;;6.00;0.50;;;11.90;99.10;;;;;;5068327;28;20470;-67
2024/01/22 10:09:19;;;;;;;5.70;0.40;;;12.00;99.10;;;;;;5068195;28;20482;-67
2024/01/22 10:11:48;;;;;;;6.77;0.50;;;12.00;99.00;;;;;;5067554;28;20482;-66
2024/01/22 10:14:16;;;;;;;6.27;0.70;;;12.20;99.00;;;;;;5068419;28;20463;-67
2024/01/22 10:16:44;;;;;;;8.00;0.70;;;12.20;99.10;;;;;;5068097;28;20474;-67
2024/01/22 10:19:13;;;;;;;6.00;0.40;;;12.20;99.10;;;;;;5068394;28;20451;-68
2024/01/22 10:21:42;;;;;;;5.90;0.50;;;12.10;99.50;;;;;;5067565;28;20443;-68
2024/01/22 10:24:11;;;;;;;7.53;0.60;;;12.10;99.80;;;;;;5068227;28;20444;-67
2024/01/22 10:26:39;;;;;;;6.50;0.63;;;12.20;99.90;;;;;;5068427;28;20813;-67
2024/01/22 10:29:17;;;;;;;6.10;0.53;;;12.30;99.90;;;;;;5068581;28;20449;-67
2024/01/22 10:31:56;;;;;;;6.20;0.50;;;12.30;99.90;;;;;;5067648;28;20447;-69
2024/01/22 10:34:27;;;;;;;6.30;0.50;;;12.30;99.90;;;;;;5068209;28;20475;-68
2024/01/22 10:37:07;;;;;;;7.17;0.60;;;12.30;99.90;;;;;;5067916;28;20996;-67
2024/01/22 10:39:37;;;;;;;6.20;0.73;;;12.40;99.90;;;;;;5067862;28;20925;-69
2024/01/22 10:42:09;;;;;;;5.83;0.60;;;12.50;99.90;;;;;;5067714;28;20452;-68
2024/01/22 10:44:38;;;;;;;5.90;0.40;;;12.50;99.90;;;;;;5067746;28;20479;-67
2024/01/22 10:47:06;;;;;;;6.93;0.70;;;12.40;99.90;;;;;;5067494;28;20473;-67
2024/01/22 10:49:35;;;;;;;6.10;0.60;;;12.40;99.90;;;;;;5067652;28;20552;-67
2024/01/22 10:52:06;;;;;;;6.23;0.57;;;12.40;99.90;;;;;;5067386;28;20458;-68
2024/01/22 10:54:35;;;;;;;6.60;0.60;;;12.50;99.90;;;;;;5067356;28;20472;-68
2024/01/22 10:57:05;;;;;;;7.40;0.70;;;12.50;99.90;;;;;;5067735;28;20478;-68
2024/01/22 10:59:36;;;;;;;5.90;0.57;;;12.60;99.90;;;;;;5067493;28;20839;-67
2024/01/22 11:02:05;;;;;;;6.10;0.60;;;12.70;99.90;;;;;;5067331;28;20449;-70
2024/01/22 11:04:45;;;;;;;5.93;0.60;;;12.80;99.90;;;;;;5066902;28;20455;-68
2024/01/22 11:07:17;;;;;;;6.40;0.73;;;12.80;99.90;;;;;;5067620;28;20508;-67
2024/01/22 11:09:48;;;;;;;6.10;0.70;;;12.80;99.90;;;;;;5067308;28;20450;-68
2024/01/22 11:12:20;;;;;;;6.30;0.90;;;12.90;99.90;;;;;;5067174;28;20454;-69
2024/01/22 11:14:49;;;;;;;5.97;0.70;;;13.10;99.90;;;;;;5067467;28;20530;-68
2024/01/22 11:17:18;;;;;;;5.80;0.70;;;13.20;99.90;;;;;;5067227;28;20495;-66
2024/01/22 11:19:46;;;;;;;6.50;0.83;;;13.20;99.90;;;;;;5067345;28;20469;-68
2024/01/22 11:22:22;;;;;;;6.43;0.80;;;13.20;99.90;;;;;;5067048;28;20452;-68
2024/01/22 11:25:01;;;;;;;5.90;0.60;;;13.20;99.90;;;;;;5067293;28;20445;-68
2024/01/22 11:27:38;;;;;;;6.70;0.80;;;13.20;99.90;;;;;;5067494;28;20532;-69
2024/01/22 11:30:29;;;;;;;6.20;0.77;;;13.20;99.90;;;;;;5059813;28;20495;-67
2024/01/22 11:32:58;;;;;;;7.40;1.03;;;13.20;99.90;;;;;;5058933;28;20482;-67
2024/01/22 11:35:34;;;;;;;6.30;0.77;;;13.20;99.90;;;;;;5067428;28;20457;-67
2024/01/22 11:38:05;;;;;;;6.40;0.70;;;13.20;99.90;;;;;;5067176;28;20862;-67
2024/01/22 11:40:50;;;;;;;6.93;0.57;;;13.20;99.90;;;;;;5066661;28;20457;-70
2024/01/22 11:43:20;;;;;;;6.27;0.77;;;13.00;99.90;;;;;;5066978;28;20451;-67
2024/01/22 11:45:51;;;;;;;6.20;0.70;;;12.90;99.90;;;;;;5066870;28;20486;-67
2024/01/22 11:48:24;;;;;;;6.10;0.70;;;12.80;99.90;;;;;;5067212;28;20512;-68
2024/01/22 11:50:59;;;;;;;6.57;0.60;;;12.70;99.90;;;;;;5066472;28;20967;-65
2024/01/22 11:53:29;;;;;;;5.70;0.40;;;12.50;99.90;;;;;;5066970;28;20442;-67
2024/01/22 11:56:00;;;;;;;6.77;0.63;;;12.50;99.90;;;;;;5066880;28;20446;-68
2024/01/22 11:58:29;;;;;;;7.63;0.60;;;12.50;99.90;;;;;;5067130;28;20468;-67
2024/01/22 12:00:57;;;;;;;5.67;0.47;;;12.50;99.90;;;;;;5066589;28;20442;-67
2024/01/22 12:03:25;;;;;;;6.00;0.53;;;12.50;99.90;;;;;;5067214;28;20447;-68
2024/01/22 12:06:00;;;;;;;6.40;0.50;;;12.50;99.90;;;;;;5067106;28;20867;-68
2024/01/22 12:08:30;;;;;;;5.70;0.50;;;12.60;99.90;;;;;;5068751;28;20441;-67
2024/01/22 12:11:08;;;;;;;6.17;0.63;;;12.50;99.90;;;;;;5067624;28;21124;-68
2024/01/22 12:13:37;;;;;;;6.17;0.80;;;12.50;99.90;;;;;;5066622;28;20446;-68
2024/01/22 12:16:06;;;;;;;6.00;0.60;;;12.60;99.90;;;;;;5067620;28;20450;-67
2024/01/22 12:18:33;;;;;;;6.30;0.60;;;12.60;99.90;;;;;;5070582;28;20460;-68
2024/01/22 12:21:04;;;;;;;6.60;0.60;;;12.60;99.90;;;;;;5070395;28;20451;-68
2024/01/22 12:23:34;;;;;;;7.37;0.80;;;12.60;99.90;;;;;;5071709;28;20447;-68
2024/01/22 12:26:03;;;;;;;6.43;0.70;;;12.60;99.90;;;;;;5073265;28;20560;-68
2024/01/22 12:28:33;;;;;;;6.33;0.70;;;12.60;99.90;;;;;;5070738;28;20541;-68
2024/01/22 12:31:02;;;;;;;7.13;0.80;;;12.40;99.90;;;;;;5061093;28;20442;-67
2024/01/22 12:33:35;;;;;;;6.30;0.70;;;12.30;99.90;;;;;;5070027;28;20444;-67
2024/01/22 12:36:12;;;;;;;6.10;0.60;;;12.20;99.90;;;;;;5069276;28;20446;-68
2024/01/22 12:38:50;;;;;;;5.90;0.60;;;12.10;99.90;;;;;;5069249;28;20473;-69
2024/01/22 12:41:19;;;;;;;5.87;0.47;;;12.10;99.90;;;;;;5068411;28;20447;-67
2024/01/22 12:43:47;;;;;;;6.43;0.60;;;12.10;99.90;;;;;;5068217;28;20441;-67
2024/01/22 12:46:19;;;;;;;6.63;0.63;;;12.10;99.90;;;;;;5068139;28;20485;-67
2024/01/22 12:48:49;;;;;;;6.00;0.60;;;12.20;99.90;;;;;;5067846;28;20455;-69
2024/01/22 12:51:18;;;;;;;6.47;0.80;;;12.10;99.90;;;;;;5067840;28;21010;-68
2024/01/22 12:53:47;;;;;;;5.93;0.50;;;12.10;99.90;;;;;;5068788;28;20460;-67
2024/01/22 12:56:17;;;;;;;6.00;0.60;;;12.20;99.90;;;;;;5068770;28;20458;-67
2024/01/22 12:58:45;;;;;;;5.80;0.40;;;12.20;99.90;;;;;;5067362;28;20447;-68